Acworth, Georgia
Current Conditions -  °F | °C
As of 10:47 PM on Saturday 20 Dec 2014 (Local Time) from KRYY Reporting Station
Haze Haze  
Wind Chill: 46°   Ceiling: 1300
Heat Index: 46°   Visibility: 5mi
Dew Point: 43°   Wind: 0mph
Humidity: 87%   Direction: NA
Pressure: 30.22"   Gusts: NA
Location:  34.06°N, 84.68°W
Report Text: KRYY 210347Z 00000KT 5SM BR OVC013 08/06 A3022
Loading
Personal Weather Stations






























Interactive Weather Map New forecast layout! Learn more

10-Day Weather Forecast

Advertisements
Track Severe Weather on mobile